EVRA/RIX METAR and TAF weather

Enter ICAO airport designator
Station Type Date Time Source
EVRA METAR 2020/02/26 08:50 UTC NOAA

EVRA 260850Z 18014KT 9999 SCT047 03/00 Q0987 R18/290195 NOSIG


Station Type Date Time Source
EVRA Decoded METAR 2020/02/26 08:50 UTC NOAA

Riga International Airport, Latvia (EVRA) 56-55N 023-58E
Feb 26, 2020 - 03:50 AM EST / 2020.02.26 0850 UTC
Wind: from the S (180 degrees) at 16 MPH (14 KT):0
Visibility: greater than 7 mile(s):0
Sky conditions: partly cloudy
Temperature: 37 F (3 C)
Dew Point: 32 F (0 C)
Relative Humidity: 80%
Pressure (altimeter): 29.15 in. Hg (0987 hPa)
ob: EVRA 260850Z 18014KT 9999 SCT047 03/00 Q0987 R18/290195 NOSIG
cycle: 9

Station Type Date Time Source
EVRA TAF 2020/02/26 09:03 UTC NOAA

TAF TAF EVRA 260800Z 2609/2709 17010KT 9999 BKN030
BECMG 2621/2623 VRB02KT
TEMPO 2700/2707 3000 BR

Example: see airport list